Main page
METAR-TAF:

METAR-TAF

Airports :

Birsa Munda Airport

Ranchi, India

latitude: 23-18-51N, longitude: 85-19-18E, elevation: 646 m

Current weather observation

The report was made 1 hour and 39 minutes ago, at 18:00 UTC
Calm wind
Temperature 16°C
Humidity 88%
Pressure 1016 hPa
Visibility: 2500 m
mist

METAR: VERC 011800Z 00000KT 2500 BR NSC 16/14 Q1016 NOSIG

Time: 01:09 (19:39 UTC)

Forecast

The report was made 2 hours and 39 minutes ago, at 17:00 UTC
Forecast valid from 01 at 18 UTC to 02 at 03 UTC
Wind kt from the North
Visibility: 2500 m
mist
Becoming
from 02 at 00 UTC to 02 at 02 UTC
Visibility: 1500 m
mist

TAF: VERC 011700Z 0118/0203 00000KT 2500 BR NSC BECMG 0200/0202 1500 BR

Weather observations and forecasts of more than 4000 airports (METAR and TAF reports).

The available stations are represented by yellow and red dots on the map.

Hover mouse over dot to see the name of the station.

Then click to see weather observations and forecasts.

To change the map : click on the green buttons with a black cross to zoom in, on the green button with a dash to zoom out, or on the green arrows for adjacent maps.


METAR-TAF: